Latest Weather Observations for Ouse

IDT60801

Issued at 6:31 pm EDT Tuesday 17 October 2017 (issued every 30 minutes, with the page automatically refreshed every 10 minutes)

About weather observations | Map of weather stations | Latest weather observations for TAS | Other Formats
Station Details ID: 095048 Name: OUSE FIRE STATION Lat: -42.48 Lon: 146.71 Height: 90.0 m
Data from the previous 72 hours. | See also: Recent months at Ouse
Date/Time
EDT
Temp
°C
App
Temp
°C
Dew
Point
°C
Rel
Hum
%
Delta-T
°C
Wind Press
QNH
hPa
Press
MSL
hPa
Rain since
9am
mm
Dir  Spd
km/h
Gust
km/h
Spd
kts
Gust
kts
17/06:30pm 26.1 - - - - SSE 9 11 5 6 1019.3 1019.3 0.0
17/06:00pm 26.4 - - - - SSE 11 15 6 8 1019.3 1019.3 0.0
17/05:30pm 26.8 - - - - SSE 13 19 7 10 1019.2 1019.2 0.0
17/05:00pm 27.5 27.3 16.8 52 6.7 SSE 13 19 7 10 1019.3 1019.3 0.0
17/04:30pm 27.4 26.3 16.4 51 6.8 SSE 17 22 9 12 1019.4 1019.4 0.0
17/04:00pm 27.6 27.1 15.9 49 7.2 SE 13 19 7 10 1019.5 1019.5 0.0
17/03:30pm 27.7 26.2 15.4 47 7.5 SSE 17 20 9 11 1019.6 1019.6 0.0
17/03:00pm 27.1 26.3 16.1 51 6.8 SSE 15 20 8 11 1019.8 1019.8 0.0
17/02:30pm 26.8 27.0 17.6 57 5.8 SSE 13 17 7 9 1020.3 1020.4 0.0
17/02:00pm 25.0 25.5 17.5 63 4.7 SSE 11 15 6 8 1020.7 1020.8 0.0
17/01:30pm 24.3 25.6 18.5 70 3.7 SSE 9 15 5 8 1021.0 1021.1 0.0
17/01:00pm 23.2 24.1 16.5 66 4.1 SSE 7 11 4 6 1021.4 1021.5 0.0
17/12:30pm 22.2 21.5 13.3 57 5.1 SSE 9 13 5 7 1021.8 1021.9 0.0
17/12:00pm 20.4 19.3 12.1 59 4.6 SE 9 13 5 7 1022.3 1022.4 0.0
17/11:30am 19.0 18.2 13.0 68 3.4 SSE 9 11 5 6 1022.8 1022.9 0.0
17/11:00am 17.4 16.5 12.5 73 2.7 S 9 13 5 7 1023.2 1023.3 0.0
17/10:30am 16.5 16.0 12.5 77 2.2 SE 7 9 4 5 1023.5 1023.6 0.0
17/10:00am 15.3 14.7 12.4 83 1.6 SE 7 9 4 5 1023.6 1023.7 0.0
17/09:30am 13.4 12.8 11.8 90 0.9 SE 6 9 3 5 1023.8 1023.9 0.0
17/09:00am 12.1 11.0 9.8 86 1.2 SE 6 7 3 4 1023.8 1023.9 0.0
17/08:30am 9.9 9.6 8.5 91 0.7 CALM 0 0 0 0 1023.8 1023.9 0.0
17/08:00am 7.4 6.7 7.1 98 0.1 CALM 0 0 0 0 1023.8 1023.9 0.0
17/07:30am 6.1 4.0 5.8 98 0.1 N 6 7 3 4 1023.6 1023.7 0.0
17/07:00am 5.9 5.0 5.9 100 0.0 CALM 0 0 0 0 1023.3 1023.4 0.0
17/06:30am 4.8 3.6 4.7 99 0.0 CALM 0 0 0 0 1023.0 1023.1 0.0
17/06:00am 4.9 3.7 4.6 98 0.1 CALM 0 0 0 0 1022.6 1022.7 0.0
17/05:30am 5.2 3.3 4.9 98 0.1 N 4 7 2 4 1022.6 1022.7 0.0
17/05:00am 5.4 4.3 5.1 98 0.1 CALM 0 0 0 0 1022.6 1022.7 0.0
17/04:30am 5.8 4.4 5.5 98 0.1 N 2 6 1 3 1022.7 1022.8 0.0
17/04:00am 6.0 5.0 5.6 97 0.2 CALM 0 0 0 0 1022.6 1022.7 0.0
17/03:30am 6.4 5.5 6.0 97 0.2 CALM 0 0 0 0 1022.5 1022.6 0.0
17/03:00am 6.9 6.1 6.5 97 0.2 CALM 0 2 0 1 1022.5 1022.6 0.0
17/02:30am 7.3 5.8 6.7 96 0.3 NW 4 6 2 3 1022.7 1022.8 0.0
17/02:00am 7.8 6.4 7.2 96 0.3 NE 4 7 2 4 1022.9 1023.0 0.0
17/01:30am 8.8 8.4 8.4 97 0.2 CALM 0 0 0 0 1023.2 1023.3 0.0
17/01:00am 9.0 8.6 8.1 94 0.4 CALM 0 0 0 0 1023.2 1023.3 0.0
17/12:30am 9.8 9.4 8.4 91 0.7 CALM 0 0 0 0 1023.2 1023.3 0.0
17/12:00am 11.0 11.0 9.8 92 0.6 CALM 0 0 0 0 1023.3 1023.4 0.0
 
Date/Time
EDT
Temp
°C
App
Temp
°C
Dew
Point
°C
Rel
Hum
%
Delta-T
°C
Wind Press
QNH
hPa
Press
MSL
hPa
Rain since
9am
mm
Dir  Spd
km/h
Gust
km/h
Spd
kts
Gust
kts
16/11:30pm 12.0 11.9 9.6 85 1.2 CALM 0 0 0 0 1023.3 1023.4 0.0
16/11:00pm 13.4 11.7 10.0 80 1.8 SSW 9 15 5 8 1023.4 1023.5 0.0
16/10:30pm 15.0 12.8 9.4 69 2.9 S 11 15 6 8 1023.3 1023.4 0.0
16/10:00pm 15.8 13.3 9.7 67 3.2 SSE 13 17 7 9 1023.3 1023.4 0.0
16/09:30pm 16.1 14.1 10.0 67 3.2 SSE 11 17 6 9 1023.2 1023.3 0.0
16/09:00pm 17.1 15.2 10.5 65 3.5 SSE 11 15 6 8 1023.0 1023.1 0.0
16/08:30pm 18.5 15.9 10.8 61 4.2 S 15 20 8 11 1022.7 1022.8 0.0
16/08:00pm 19.9 17.1 11.4 58 4.7 S 17 28 9 15 1022.0 1022.1 0.0
16/07:30pm 20.0 18.4 11.5 58 4.7 SSW 11 15 6 8 1021.4 1021.5 0.0
16/07:00pm 23.0 22.7 11.4 48 6.5 ENE 4 11 2 6 1021.0 1021.1 0.0
16/06:30pm 24.4 24.2 10.3 41 7.8 NNE 2 11 1 6 1020.9 1021.0 0.0
16/06:00pm 25.2 24.2 11.0 41 8.0 SE 7 9 4 5 1020.8 1020.9 0.0
16/05:30pm 25.9 24.0 10.5 38 8.6 SSE 11 15 6 8 1020.6 1020.7 0.0
16/05:00pm 26.2 23.9 10.4 37 8.8 SSE 13 17 7 9 1020.7 1020.8 0.0
16/04:30pm 26.0 24.4 10.2 37 8.8 SE 9 13 5 7 1020.8 1020.9 0.0
16/04:00pm 26.0 24.8 11.7 41 8.2 SE 9 17 5 9 1020.9 1021.0 0.0
16/03:30pm 25.4 24.0 10.8 40 8.2 SE 9 13 5 7 1021.2 1021.3 0.0
16/03:00pm 25.0 22.8 10.8 41 7.9 SSE 13 17 7 9 1021.6 1021.7 0.0
16/02:30pm 23.9 22.4 13.2 51 6.2 SE 13 17 7 9 1022.0 1022.1 0.0
16/02:00pm 23.1 22.0 13.0 53 5.8 S 11 15 6 8 1022.4 1022.5 0.0
16/01:30pm 21.8 21.1 13.2 58 5.0 S 9 13 5 7 1022.9 1023.0 0.0
16/01:00pm 19.8 19.3 12.8 64 3.9 SSE 7 11 4 6 1023.3 1023.4 0.0
16/12:30pm 19.2 18.6 13.4 69 3.3 SSE 9 13 5 7 1023.8 1023.9 0.0
16/12:00pm 18.0 18.0 14.1 78 2.2 S 7 11 4 6 1024.3 1024.4 0.0
16/11:30am 16.1 15.1 10.4 69 3.0 SE 6 9 3 5 1024.9 1025.0 0.0
16/11:00am 15.4 14.5 11.4 77 2.1 SSE 7 9 4 5 1025.3 1025.4 0.0
16/10:30am 13.4 12.0 9.6 78 2.0 SE 7 13 4 7 1025.8 1025.9 0.0
16/10:00am 11.5 9.9 8.9 84 1.3 ESE 7 11 4 6 1026.0 1026.1 0.0
16/09:30am 10.5 8.7 7.9 84 1.3 SSE 7 9 4 5 1026.1 1026.2 0.0
16/09:00am 9.4 8.4 7.2 86 1.0 SE 2 7 1 4 1026.2 1026.3 0.0
16/08:30am 7.6 6.8 6.5 93 0.5 CALM 0 0 0 0 1026.3 1026.4 0.0
16/08:00am 5.5 4.5 5.4 99 0.0 CALM 0 0 0 0 1026.3 1026.4 0.0
16/07:30am 4.3 3.0 4.2 99 0.0 CALM 0 6 0 3 1026.3 1026.4 0.0
16/07:00am 3.1 0.5 3.0 99 0.0 N 6 7 3 4 1026.0 1026.1 0.0
16/06:30am 2.8 1.2 2.5 98 0.1 CALM 0 0 0 0 1025.6 1025.7 0.0
16/06:00am 3.2 1.7 2.9 98 0.1 CALM 0 0 0 0 1025.1 1025.2 0.0
16/05:30am 3.2 1.7 2.9 98 0.1 CALM 0 0 0 0 1024.9 1025.0 0.0
16/05:00am 3.5 2.0 3.2 98 0.1 CALM 0 0 0 0 1024.9 1025.0 0.0
16/04:30am 3.7 0.9 3.4 98 0.1 N 7 9 4 5 1024.9 1025.0 0.0
16/04:00am 3.7 1.1 3.3 97 0.2 NNE 6 7 3 4 1025.0 1025.1 0.0
16/03:30am 4.0 2.6 3.6 97 0.2 CALM 0 0 0 0 1025.1 1025.2 0.0
16/03:00am 4.4 1.9 4.0 97 0.2 NNE 6 6 3 3 1025.2 1025.3 0.0
16/02:30am 4.6 3.3 4.2 97 0.2 CALM 0 0 0 0 1025.1 1025.2 0.0
16/02:00am 5.4 4.3 5.1 98 0.1 CALM 0 0 0 0 1025.1 1025.2 0.0
16/01:30am 5.8 4.8 5.4 97 0.2 CALM 0 0 0 0 1025.1 1025.2 0.0
16/01:00am 6.1 5.1 5.7 97 0.2 CALM 0 0 0 0 1025.1 1025.2 0.0
16/12:30am 6.8 6.0 6.4 97 0.2 CALM 0 0 0 0 1025.0 1025.1 0.0
16/12:00am 7.2 6.1 6.9 98 0.1 NNE 2 7 1 4 1025.0 1025.1 0.0
 
Date/Time
EDT
Temp
°C
App
Temp
°C
Dew
Point
°C
Rel
Hum
%
Delta-T
°C
Wind Press
QNH
hPa
Press
MSL
hPa
Rain since
9am
mm
Dir  Spd
km/h
Gust
km/h
Spd
kts
Gust
kts
15/11:30pm 7.6 5.7 7.6 100 0.0 N 7 9 4 5 1024.8 1024.9 0.0
15/11:00pm 8.4 - - - - CALM 0 0 0 0 1024.8 1024.9 0.0
15/10:30pm 9.4 9.0 8.3 93 0.5 CALM 0 6 0 3 1024.5 1024.6 0.0
15/10:00pm 10.1 8.6 8.5 90 0.8 N 6 9 3 5 1024.4 1024.5 0.0
15/09:30pm 11.0 10.6 8.2 83 1.4 CALM 0 0 0 0 1024.1 1024.2 0.0
15/09:00pm 12.8 11.9 7.9 72 2.4 WSW 2 9 1 5 1023.8 1023.9 0.0
15/08:30pm 14.7 12.8 7.7 63 3.5 SE 7 11 4 6 1023.6 1023.7 0.0
15/08:00pm 14.7 12.5 9.5 71 2.7 W 11 17 6 9 1023.0 1023.1 0.0
15/07:30pm 18.9 16.3 7.7 48 5.7 W 11 15 6 8 1022.7 1022.8 0.0
15/07:00pm 20.1 18.0 8.1 46 6.2 WNW 9 15 5 8 1022.3 1022.4 0.0
15/06:30pm 21.3 19.7 10.2 49 6.0 NNW 9 13 5 7 1021.9 1022.0 0.0
15/06:00pm 23.0 20.2 8.7 40 7.6 WSW 13 19 7 10 1021.7 1021.8 0.0
15/05:30pm 23.5 20.8 8.8 39 7.9 SW 13 15 7 8 1021.5 1021.6 0.0
15/05:00pm 24.1 20.8 9.7 40 7.9 SW 17 26 9 14 1021.3 1021.4 0.0
15/04:30pm 24.2 21.0 10.1 41 7.8 SW 17 30 9 16 1021.2 1021.3 0.0
15/04:00pm 23.9 19.9 9.1 39 8.0 SW 20 30 11 16 1021.1 1021.2 0.0
15/03:30pm 24.2 21.6 10.8 43 7.5 SW 15 26 8 14 1021.2 1021.3 0.0
15/03:00pm 24.1 20.4 10.0 41 7.7 WSW 20 32 11 17 1021.1 1021.2 0.0
15/02:30pm 23.8 20.1 9.4 40 7.8 SW 19 30 10 16 1021.0 1021.1 0.0
15/02:00pm 23.7 20.3 10.4 43 7.3 WSW 19 26 10 14 1021.1 1021.2 0.0
15/01:30pm 23.0 20.0 10.8 46 6.8 WSW 17 26 9 14 1021.0 1021.1 0.0
15/01:00pm 21.8 18.2 9.7 46 6.5 W 19 30 10 16 1020.9 1021.0 0.0
15/12:30pm 21.2 17.6 10.4 50 5.9 NW 20 28 11 15 1020.9 1021.0 0.0
15/12:00pm 20.1 15.5 9.7 51 5.6 NW 24 35 13 19 1020.9 1021.0 0.0
15/11:30am 19.1 14.6 9.9 55 4.9 NNW 24 33 13 18 1021.1 1021.2 0.0
15/11:00am 18.0 13.5 9.9 59 4.3 NW 24 33 13 18 1021.4 1021.5 0.0
15/10:30am 17.3 12.8 10.0 62 3.9 NW 24 35 13 19 1021.6 1021.7 0.0
15/10:00am 16.5 12.0 10.1 66 3.4 NNW 24 39 13 21 1021.5 1021.6 0.0
15/09:30am 15.4 9.9 9.1 66 3.2 NNW 28 37 15 20 1021.2 1021.3 0.0
15/09:00am 14.5 9.5 8.2 66 3.2 NNW 24 37 13 20 1021.1 1021.2 0.0
15/08:30am 13.9 8.9 8.1 68 2.9 NW 24 37 13 20 1020.8 1020.9 0.0
15/08:00am 13.3 9.2 8.0 70 2.6 NNW 19 30 10 16 1020.8 1020.9 0.0
15/07:30am 11.7 7.3 7.4 75 2.1 N 20 24 11 13 1020.4 1020.5 0.0
15/07:00am 11.0 6.8 7.3 78 1.8 N 19 24 10 13 1020.0 1020.1 0.0
15/06:30am 10.1 5.8 7.2 82 1.4 N 19 35 10 19 1019.7 1019.7 0.0
15/06:00am 9.8 5.5 7.2 84 1.2 N 19 26 10 14 1019.4 1019.4 0.0
15/05:30am 9.5 6.7 6.8 83 1.3 NNW 11 17 6 9 1019.6 1019.6 0.0
15/05:00am 9.9 6.0 7.0 82 1.4 N 17 20 9 11 1019.6 1019.6 0.0
15/04:30am 9.5 5.9 6.9 84 1.2 N 15 20 8 11 1019.6 1019.6 0.0
15/04:00am 9.3 6.2 7.1 86 1.0 N 13 19 7 10 1019.8 1019.8 0.0
15/03:30am 8.8 6.9 7.4 91 0.7 N 7 11 4 6 1020.0 1020.1 0.0
15/03:00am 7.7 5.8 7.7 100 0.0 NNW 7 9 4 5 1020.2 1020.3 0.0
15/02:30am 8.0 5.9 6.6 91 0.6 N 7 11 4 6 1020.4 1020.5 0.0
15/02:00am 9.1 7.4 8.2 94 0.4 N 7 11 4 6 1020.6 1020.7 0.0
15/01:30am 9.5 7.0 8.3 92 0.6 N 11 17 6 9 1020.8 1020.9 0.0
15/01:00am 10.4 8.3 8.3 87 1.0 NNW 9 13 5 7 1021.0 1021.1 0.0
15/12:30am 10.4 8.4 8.5 88 0.9 NNW 9 13 5 7 1021.1 1021.2 0.0
15/12:00am 11.3 8.6 8.9 85 1.2 NNW 13 22 7 12 1021.0 1021.1 0.0
 
Date/Time
EDT
Temp
°C
App
Temp
°C
Dew
Point
°C
Rel
Hum
%
Delta-T
°C
Wind Press
QNH
hPa
Press
MSL
hPa
Rain since
9am
mm
Dir  Spd
km/h
Gust
km/h
Spd
kts
Gust
kts
14/11:30pm 9.4 7.4 8.6 95 0.4 N 9 17 5 9 1020.9 1021.0 0.0
14/11:00pm 9.5 7.7 7.3 86 1.0 N 6 7 3 4 1021.0 1021.1 0.0
14/10:30pm 10.1 7.9 7.7 85 1.2 NNW 9 13 5 7 1020.9 1021.0 0.0
14/10:00pm 10.4 8.6 8.0 85 1.2 N 7 13 4 7 1021.0 1021.1 0.0
14/09:30pm 12.0 9.6 8.7 80 1.6 NNW 11 17 6 9 1021.1 1021.2 0.0
14/09:00pm 12.4 10.5 8.9 79 1.8 NNW 9 15 5 8 1021.2 1021.3 0.0
14/08:30pm 12.8 10.5 8.9 77 2.0 NNW 11 19 6 10 1021.2 1021.3 0.0
14/08:00pm 12.2 10.7 10.6 90 0.8 N 9 13 5 7 1020.9 1021.0 0.0
14/07:30pm 13.5 11.2 10.5 82 1.6 N 13 17 7 9 1020.7 1020.8 0.0
14/07:00pm 14.5 11.8 10.5 77 2.1 NW 15 24 8 13 1020.5 1020.6 0.0

Other Formats:

Comma delimited format used in spreadsheet applications
http://www.bom.gov.au/fwo/IDT60801/IDT60801.94957.axf

JavaScript Object Notation format (JSON) in row-major order
http://www.bom.gov.au/fwo/IDT60801/IDT60801.94957.json